Time;durP1;ratioP1;P1;durP2;ratioP2;P2;SDS_P1;SDS_P2;PMS_P1;PMS_P2;Temp;Humidity;BMP_temperature;BMP_pressure;BME280_temperature;BME280_humidity;BME280_pressure;Samples;Min_cycle;Max_cycle;Signal;HPM_P1;HPM_P2
2022/11/01 00:01:07;;;;;;;21.55;12.13;;;13.20;99.90;;;;;;5089942;28;20032;-60
2022/11/01 00:03:32;;;;;;;23.10;13.63;;;13.20;99.90;;;;;;5089450;28;20523;-60
2022/11/01 00:05:58;;;;;;;28.00;12.68;;;13.30;99.90;;;;;;5088809;28;20040;-60
2022/11/01 00:08:24;;;;;;;20.67;13.02;;;13.40;99.90;;;;;;5090468;28;20036;-61
2022/11/01 00:10:49;;;;;;;23.25;12.93;;;13.40;99.90;;;;;;5090118;28;20032;-60
2022/11/01 00:13:15;;;;;;;25.95;12.80;;;13.50;99.90;;;;;;5089725;28;20409;-60
2022/11/01 00:15:41;;;;;;;23.03;12.43;;;13.50;99.90;;;;;;5089750;28;20073;-59
2022/11/01 00:18:07;;;;;;;26.35;12.65;;;13.50;99.90;;;;;;5090110;28;20624;-60
2022/11/01 00:20:32;;;;;;;22.73;12.87;;;13.50;99.90;;;;;;5090400;28;20131;-61
2022/11/01 00:22:58;;;;;;;20.07;12.70;;;13.60;99.90;;;;;;5093653;28;20118;-60
2022/11/01 00:25:23;;;;;;;26.33;12.93;;;13.50;99.90;;;;;;5111701;28;20308;-59
2022/11/01 00:27:49;;;;;;;32.33;12.37;;;13.60;99.90;;;;;;5114387;28;20119;-60
2022/11/01 00:30:15;;;;;;;20.77;12.80;;;13.60;99.90;;;;;;5111983;28;20364;-59
2022/11/01 00:32:41;;;;;;;22.02;12.50;;;13.50;99.90;;;;;;5112462;28;20031;-60
2022/11/01 00:35:07;;;;;;;22.45;12.65;;;13.60;99.90;;;;;;5101512;28;20559;-60
2022/11/01 00:37:32;;;;;;;18.77;12.35;;;13.60;99.90;;;;;;5103154;28;20043;-59
2022/11/01 00:39:58;;;;;;;19.40;12.07;;;13.60;99.90;;;;;;5101718;28;20043;-60
2022/11/01 00:42:23;;;;;;;17.02;10.82;;;13.60;99.90;;;;;;5093667;28;20105;-60
2022/11/01 00:44:49;;;;;;;20.30;11.53;;;13.60;99.90;;;;;;5100405;28;20046;-57
2022/11/01 00:47:14;;;;;;;21.87;12.10;;;13.60;99.90;;;;;;5093638;28;20278;-59
2022/11/01 00:49:40;;;;;;;18.57;10.43;;;13.60;99.90;;;;;;5103556;28;20040;-60
2022/11/01 00:52:05;;;;;;;19.67;10.93;;;13.70;99.90;;;;;;5107447;28;20392;-59
2022/11/01 00:54:31;;;;;;;20.38;10.65;;;13.80;99.90;;;;;;5093687;28;20044;-60
2022/11/01 00:56:56;;;;;;;17.57;10.63;;;13.70;99.90;;;;;;5094609;28;20048;-59
2022/11/01 00:59:22;;;;;;;22.37;11.37;;;13.80;99.90;;;;;;5093396;28;20298;-60
2022/11/01 01:01:48;;;;;;;20.37;11.03;;;13.80;99.90;;;;;;5102013;28;20297;-59
2022/11/01 01:04:13;;;;;;;20.60;11.45;;;13.80;99.90;;;;;;5113292;28;20797;-59
2022/11/01 01:06:39;;;;;;;22.83;11.23;;;13.90;99.90;;;;;;5108952;28;20032;-60
2022/11/01 01:09:04;;;;;;;19.90;10.27;;;13.90;99.90;;;;;;5093455;28;20036;-59
2022/11/01 01:11:30;;;;;;;17.77;10.43;;;13.90;99.90;;;;;;5096740;28;20035;-57
2022/11/01 01:13:55;;;;;;;17.83;9.93;;;14.00;99.90;;;;;;5112814;28;20061;-60
2022/11/01 01:16:21;;;;;;;17.48;9.38;;;14.10;99.90;;;;;;5112100;28;20039;-60
2022/11/01 01:18:47;;;;;;;22.98;10.50;;;14.10;99.90;;;;;;5103810;28;20043;-59
2022/11/01 01:21:14;;;;;;;28.52;10.45;;;14.10;99.90;;;;;;5105492;28;20028;-59
2022/11/01 01:23:39;;;;;;;15.55;9.82;;;14.10;99.90;;;;;;5092739;28;20052;-59
2022/11/01 01:26:07;;;;;;;24.15;10.68;;;14.10;99.90;;;;;;5093140;28;20024;-61
2022/11/01 01:28:32;;;;;;;19.65;10.73;;;14.10;99.90;;;;;;5107045;28;20039;-60
2022/11/01 01:30:58;;;;;;;16.83;9.98;;;14.20;99.90;;;;;;5113091;28;20054;-60
2022/11/01 01:33:24;;;;;;;13.63;8.50;;;14.20;99.90;;;;;;5098975;28;20093;-59
2022/11/01 01:35:49;;;;;;;15.90;8.98;;;14.10;99.90;;;;;;5093393;28;20039;-59
2022/11/01 01:38:15;;;;;;;18.90;9.60;;;14.20;99.90;;;;;;5101212;28;20459;-59
2022/11/01 01:40:40;;;;;;;19.27;9.40;;;14.20;99.90;;;;;;5095703;28;20036;-60
2022/11/01 01:43:10;;;;;;;17.58;8.57;;;14.30;99.90;;;;;;5096581;28;20044;-60
2022/11/01 01:45:38;;;;;;;15.30;8.10;;;14.30;99.90;;;;;;5093073;28;20036;-59
2022/11/01 01:48:24;;;;;;;15.90;9.07;;;14.30;99.90;;;;;;5081889;28;20488;-60
2022/11/01 01:50:57;;;;;;;18.90;10.00;;;14.30;99.90;;;;;;5099294;28;20042;-58
2022/11/01 01:53:30;;;;;;;16.48;8.43;;;14.30;99.90;;;;;;5092343;28;20083;-59
2022/11/01 01:55:59;;;;;;;12.27;9.00;;;14.30;99.90;;;;;;5092400;28;20535;-60
2022/11/01 01:58:30;;;;;;;20.10;8.77;;;14.40;99.90;;;;;;5092880;28;20042;-59
2022/11/01 02:00:56;;;;;;;16.02;7.88;;;14.40;99.90;;;;;;5091166;28;20060;-59
2022/11/01 02:03:25;;;;;;;19.40;8.93;;;14.40;99.90;;;;;;5092295;28;20036;-61
2022/11/01 02:06:13;;;;;;;15.18;8.57;;;14.40;99.90;;;;;;5092707;28;20047;-60
2022/11/01 02:08:42;;;;;;;21.67;8.27;;;14.40;99.90;;;;;;5091396;28;20085;-59
2022/11/01 02:11:09;;;;;;;21.30;8.15;;;14.40;99.90;;;;;;5092397;28;20048;-60
2022/11/01 02:13:35;;;;;;;16.90;7.78;;;14.40;99.90;;;;;;5091661;28;20489;-60
2022/11/01 02:16:30;;;;;;;16.60;9.40;;;14.50;99.90;;;;;;5092280;28;20412;-59
2022/11/01 02:19:19;;;;;;;20.67;8.15;;;14.40;99.90;;;;;;5092498;28;20405;-61
2022/11/01 02:21:56;;;;;;;15.55;8.63;;;14.40;99.90;;;;;;5092864;28;20562;-59
2022/11/01 02:24:35;;;;;;;;;;;14.40;99.90;;;;;;5094040;28;20043;-60
2022/11/01 02:27:07;;;;;;;17.40;8.13;;;14.40;99.90;;;;;;5091458;28;19924;-61
2022/11/01 02:30:00;;;;;;;13.48;7.63;;;14.40;99.90;;;;;;5100100;28;20038;-60
2022/11/01 02:32:37;;;;;;;13.77;7.72;;;14.40;99.90;;;;;;5109878;28;20036;-60
2022/11/01 02:35:12;;;;;;;13.23;7.45;;;14.40;99.90;;;;;;5110245;28;20080;-60
2022/11/01 02:38:08;;;;;;;13.88;7.43;;;14.40;99.90;;;;;;5111769;28;20096;-60
2022/11/01 02:40:52;;;;;;;12.68;6.05;;;14.40;99.90;;;;;;5099427;28;20550;-60
2022/11/01 02:43:49;;;;;;;12.93;6.25;;;14.50;99.90;;;;;;5103574;28;20059;-61
2022/11/01 02:49:03;;;;;;;12.53;6.03;;;14.70;99.90;;;;;;5111386;28;20122;-60
2022/11/01 02:51:30;;;;;;;18.98;6.28;;;14.80;99.90;;;;;;5098944;28;20048;-61
2022/11/01 02:54:00;;;;;;;14.63;5.25;;;14.90;99.90;;;;;;5103468;28;20032;-61
2022/11/01 02:56:25;;;;;;;15.73;5.60;;;14.90;99.90;;;;;;5102651;28;20051;-59
2022/11/01 02:58:52;;;;;;;10.32;6.25;;;15.00;99.90;;;;;;5104229;28;20036;-60
2022/11/01 03:01:23;;;;;;;19.85;5.82;;;15.00;99.90;;;;;;5111274;28;20050;-59
2022/11/01 03:03:55;;;;;;;8.90;4.53;;;15.10;99.90;;;;;;5099598;28;20040;-61
2022/11/01 03:06:31;;;;;;;14.38;5.68;;;15.20;99.90;;;;;;5078798;28;20036;-59
2022/11/01 03:09:01;;;;;;;11.60;4.53;;;15.20;99.90;;;;;;5101755;28;20080;-59
2022/11/01 03:11:53;;;;;;;11.68;4.80;;;15.30;99.90;;;;;;5111222;28;20133;-59
2022/11/01 03:14:35;;;;;;;9.43;3.97;;;15.40;99.90;;;;;;5098067;28;20077;-58
2022/11/01 03:17:25;;;;;;;10.70;4.13;;;15.50;99.90;;;;;;5075102;28;20036;-59
2022/11/01 03:19:53;;;;;;;12.10;4.15;;;15.60;99.90;;;;;;5101408;28;20047;-60
2022/11/01 03:22:42;;;;;;;10.55;3.72;;;15.70;99.90;;;;;;5110506;28;20040;-61
2022/11/01 03:28:13;;;;;;;10.48;3.75;;;15.90;99.90;;;;;;5085476;28;20044;-61
2022/11/01 03:30:44;;;;;;;6.70;4.50;;;16.00;99.90;;;;;;5091802;28;20036;-59
2022/11/01 03:33:13;;;;;;;10.05;3.10;;;16.10;99.90;;;;;;5089192;28;20397;-61
2022/11/01 03:35:41;;;;;;;16.33;4.60;;;16.10;99.90;;;;;;5107407;28;20043;-59
2022/11/01 03:38:12;;;;;;;9.82;3.63;;;16.10;99.90;;;;;;5109181;28;20047;-60
2022/11/01 03:40:43;;;;;;;12.23;4.28;;;16.10;99.90;;;;;;5094042;28;20047;-61
2022/11/01 03:43:12;;;;;;;13.38;3.45;;;16.10;99.90;;;;;;5069660;28;20075;-61
2022/11/01 03:45:39;;;;;;;10.57;3.85;;;16.10;99.90;;;;;;5091395;28;20035;-61
2022/11/01 03:48:06;;;;;;;11.70;3.25;;;16.10;99.90;;;;;;5107823;28;20035;-60
2022/11/01 03:50:32;;;;;;;8.90;3.83;;;16.10;99.90;;;;;;5094250;28;20047;-61
2022/11/01 03:52:58;;;;;;;;;;;16.10;99.90;;;;;;5089413;28;20093;-60
2022/11/01 03:55:24;;;;;;;9.43;4.07;;;16.10;99.90;;;;;;5087791;28;20007;-59
2022/11/01 03:57:54;;;;;;;7.40;3.17;;;16.10;99.90;;;;;;5090241;28;20051;-60
2022/11/01 04:00:29;;;;;;;11.98;3.63;;;16.10;99.90;;;;;;5089039;28;20059;-60
2022/11/01 04:02:56;;;;;;;7.78;3.85;;;16.10;99.90;;;;;;5089549;28;20043;-61
2022/11/01 04:05:23;;;;;;;6.85;3.58;;;16.10;99.90;;;;;;5090191;28;20161;-61
2022/11/01 04:07:50;;;;;;;10.27;3.90;;;16.10;99.90;;;;;;5090329;28;20031;-59
2022/11/01 04:10:16;;;;;;;10.98;4.53;;;16.20;99.90;;;;;;5090059;28;20173;-60
2022/11/01 04:12:47;;;;;;;12.48;3.58;;;16.10;99.90;;;;;;5090128;28;20127;-60
2022/11/01 04:21:07;;;;;;;9.27;3.97;;;16.10;99.90;;;;;;5090207;28;20040;-59
2022/11/01 04:23:33;;;;;;;10.27;4.15;;;16.20;99.90;;;;;;5089123;28;20044;-59
2022/11/01 04:25:59;;;;;;;9.98;4.28;;;16.20;99.90;;;;;;5095851;28;20084;-61
2022/11/01 04:28:25;;;;;;;;;;;16.20;99.90;;;;;;5103418;28;20047;-60
2022/11/01 04:30:51;;;;;;;6.80;3.90;;;16.30;99.90;;;;;;5096188;28;20006;-61
2022/11/01 04:33:16;;;;;;;11.25;4.03;;;16.20;99.90;;;;;;5109683;28;20043;-61
2022/11/01 04:35:42;;;;;;;8.40;3.78;;;16.30;99.90;;;;;;5106846;28;20035;-61
2022/11/01 04:38:10;;;;;;;16.40;4.45;;;16.30;99.90;;;;;;5091687;28;20063;-60
2022/11/01 04:40:36;;;;;;;19.10;4.75;;;16.30;99.90;;;;;;5107989;28;20404;-60
2022/11/01 04:43:02;;;;;;;8.93;4.05;;;16.30;99.90;;;;;;5088730;28;20048;-61
2022/11/01 04:45:28;;;;;;;6.68;3.50;;;16.20;99.90;;;;;;5104257;28;20043;-61
2022/11/01 04:48:15;;;;;;;11.13;3.78;;;16.30;99.90;;;;;;5106702;28;20036;-61
2022/11/01 04:50:41;;;;;;;12.35;4.85;;;16.30;99.90;;;;;;5074057;28;20043;-60
2022/11/01 04:53:07;;;;;;;;;;;16.30;99.90;;;;;;5109229;28;20050;-61
2022/11/01 04:55:33;;;;;;;9.25;3.95;;;16.30;99.90;;;;;;5108275;28;19927;-61
2022/11/01 04:57:59;;;;;;;10.57;3.72;;;16.20;99.90;;;;;;5091728;28;20410;-60
2022/11/01 05:00:25;;;;;;;9.80;3.95;;;16.30;99.90;;;;;;5109538;28;20040;-61
2022/11/01 05:02:51;;;;;;;;;;;16.30;99.90;;;;;;5108635;28;20092;-61
2022/11/01 05:05:17;;;;;;;8.63;3.42;;;16.30;99.90;;;;;;5109002;28;19992;-60
2022/11/01 05:07:43;;;;;;;5.35;3.15;;;16.20;99.90;;;;;;5099937;28;20411;-61
2022/11/01 05:10:09;;;;;;;8.63;3.53;;;16.30;99.90;;;;;;5094296;28;20107;-61
2022/11/01 05:12:35;;;;;;;;;;;16.30;99.90;;;;;;5099064;28;20123;-60
2022/11/01 05:15:01;;;;;;;6.85;3.63;;;16.30;99.90;;;;;;5112816;28;19994;-60
2022/11/01 05:17:26;;;;;;;5.18;3.03;;;16.30;99.90;;;;;;5112067;28;20039;-61
2022/11/01 05:19:52;;;;;;;7.43;3.63;;;16.30;99.90;;;;;;5102674;28;20501;-61
2022/11/01 05:22:17;;;;;;;7.15;3.80;;;16.30;99.90;;;;;;5097131;28;20044;-60
2022/11/01 05:24:43;;;;;;;14.75;3.95;;;16.30;99.90;;;;;;5111955;28;20442;-61
2022/11/01 05:27:09;;;;;;;9.48;3.45;;;16.30;99.90;;;;;;5112027;28;20027;-58
2022/11/01 05:29:34;;;;;;;8.20;4.30;;;16.20;99.90;;;;;;5097764;28;20139;-60
2022/11/01 05:32:00;;;;;;;7.75;3.05;;;16.30;99.90;;;;;;5113853;28;20551;-60
2022/11/01 05:34:26;;;;;;;4.95;3.13;;;16.30;99.90;;;;;;5093918;28;20035;-60
2022/11/01 05:36:53;;;;;;;9.35;3.53;;;16.30;99.90;;;;;;5109067;28;20046;-61
2022/11/01 05:39:18;;;;;;;11.40;3.50;;;16.30;99.90;;;;;;5110382;28;20477;-60
2022/11/01 05:41:44;;;;;;;7.35;3.92;;;16.30;99.90;;;;;;5095722;28;20071;-60
2022/11/01 05:44:09;;;;;;;9.48;3.17;;;16.30;99.90;;;;;;5111096;28;20115;-60
2022/11/01 05:46:35;;;;;;;11.00;4.05;;;16.30;99.90;;;;;;5113163;28;20035;-60
2022/11/01 05:49:01;;;;;;;7.57;3.83;;;16.30;99.90;;;;;;5103624;28;20481;-61
2022/11/01 05:51:26;;;;;;;7.72;2.58;;;16.20;99.90;;;;;;5092869;28;20478;-60
2022/11/01 05:53:52;;;;;;;9.32;2.80;;;16.20;99.90;;;;;;5092135;28;20055;-60
2022/11/01 05:56:17;;;;;;;5.15;2.75;;;16.10;99.90;;;;;;5092711;28;20043;-60
2022/11/01 05:58:43;;;;;;;5.63;1.50;;;16.10;99.90;;;;;;5092563;28;20032;-60
2022/11/01 06:01:09;;;;;;;8.52;2.35;;;16.10;99.90;;;;;;5092636;28;20039;-61
2022/11/01 06:03:35;;;;;;;6.88;2.03;;;16.00;99.90;;;;;;5091687;28;20053;-60
2022/11/01 06:06:01;;;;;;;4.95;1.05;;;16.00;99.90;;;;;;5092452;28;20500;-60
2022/11/01 06:08:27;;;;;;;3.60;0.85;;;15.90;99.90;;;;;;5092623;28;20032;-59
2022/11/01 06:10:52;;;;;;;4.68;0.57;;;15.90;99.90;;;;;;5092334;28;20043;-59
2022/11/01 06:13:18;;;;;;;4.80;0.98;;;15.80;99.90;;;;;;5091910;28;20043;-61
2022/11/01 06:15:44;;;;;;;2.75;0.60;;;15.80;99.90;;;;;;5092174;28;20118;-60
2022/11/01 06:18:10;;;;;;;3.63;0.50;;;15.70;99.90;;;;;;5091805;28;20089;-59
2022/11/01 06:20:37;;;;;;;1.85;0.25;;;15.70;99.90;;;;;;5091386;28;20046;-60
2022/11/01 06:23:08;;;;;;;7.93;0.70;;;15.60;99.90;;;;;;5110321;28;20123;-61
2022/11/01 06:25:35;;;;;;;3.17;0.65;;;15.50;99.90;;;;;;5098336;28;20429;-61
2022/11/01 06:28:01;;;;;;;4.40;0.30;;;15.40;99.90;;;;;;5093581;28;20036;-59
2022/11/01 06:30:26;;;;;;;5.13;0.82;;;15.30;99.90;;;;;;5103174;28;20054;-57
2022/11/01 06:32:57;;;;;;;5.30;0.30;;;15.30;99.90;;;;;;5095228;28;20032;-61
2022/11/01 06:35:22;;;;;;;3.70;0.40;;;15.20;99.90;;;;;;5101383;28;20364;-59
2022/11/01 06:37:48;;;;;;;7.22;0.30;;;15.10;99.90;;;;;;5110402;28;20114;-60
2022/11/01 06:40:13;;;;;;;7.63;0.38;;;15.10;99.90;;;;;;5104088;28;20052;-59
2022/11/01 06:42:39;;;;;;;2.40;0.50;;;15.00;99.90;;;;;;5091315;28;20039;-59
2022/11/01 06:45:06;;;;;;;1.70;0.30;;;14.90;99.90;;;;;;5102252;28;20097;-61
2022/11/01 06:47:31;;;;;;;1.33;0.60;;;14.90;99.90;;;;;;5092547;28;20036;-59
2022/11/01 06:49:57;;;;;;;1.17;0.20;;;14.80;99.90;;;;;;5093864;28;20120;-61
2022/11/01 06:52:22;;;;;;;3.63;0.30;;;14.80;99.90;;;;;;5094871;28;20347;-61
2022/11/01 06:54:48;;;;;;;11.83;0.60;;;14.70;99.90;;;;;;5091381;28;20309;-61
2022/11/01 06:57:13;;;;;;;4.20;0.20;;;14.70;99.90;;;;;;5104307;28;20825;-61
2022/11/01 06:59:39;;;;;;;2.77;0.43;;;14.60;99.90;;;;;;5111654;28;20809;-60
2022/11/01 07:02:05;;;;;;;7.13;0.63;;;14.50;99.90;;;;;;5099479;28;20843;-60
2022/11/01 07:04:30;;;;;;;3.33;0.30;;;14.50;99.90;;;;;;5090508;28;20763;-61
2022/11/01 07:06:56;;;;;;;4.65;0.43;;;14.40;99.90;;;;;;5096642;28;20168;-60
2022/11/01 07:09:21;;;;;;;0.70;0.10;;;14.40;99.90;;;;;;5091119;28;20032;-61
2022/11/01 07:11:47;;;;;;;2.47;0.30;;;14.40;99.90;;;;;;5091158;28;20115;-60
2022/11/01 07:14:12;;;;;;;2.63;0.20;;;14.40;99.90;;;;;;5093819;28;20059;-61
2022/11/01 07:16:38;;;;;;;5.03;0.22;;;14.40;99.90;;;;;;5098597;28;20800;-60
2022/11/01 07:19:04;;;;;;;2.67;0.20;;;14.30;99.90;;;;;;5105190;28;20104;-60
2022/11/01 07:21:30;;;;;;;4.07;0.20;;;14.30;99.90;;;;;;5109606;28;20042;-61
2022/11/01 07:23:55;;;;;;;1.92;0.30;;;14.30;99.90;;;;;;5090028;28;20036;-61
2022/11/01 07:26:21;;;;;;;0.95;0.20;;;14.30;99.90;;;;;;5102274;28;20111;-60
2022/11/01 07:28:46;;;;;;;2.10;0.43;;;14.20;99.90;;;;;;5089733;28;20119;-61
2022/11/01 07:31:12;;;;;;;2.75;0.30;;;14.30;99.90;;;;;;5090195;28;20090;-61
2022/11/01 07:33:37;;;;;;;3.65;0.30;;;14.30;99.90;;;;;;5090343;28;20040;-60
2022/11/01 07:36:04;;;;;;;4.90;0.50;;;14.30;99.90;;;;;;5091228;28;20055;-61
2022/11/01 07:38:29;;;;;;;;;;;14.60;99.90;;;;;;5089771;28;20289;-60
2022/11/01 07:40:55;;;;;;;3.60;0.20;;;15.00;99.90;;;;;;5091051;28;20296;-61
2022/11/01 07:43:21;;;;;;;3.10;0.30;;;15.20;99.90;;;;;;5090478;28;20083;-60
2022/11/01 07:45:47;;;;;;;2.03;0.22;;;15.20;99.90;;;;;;5088960;28;20036;-61
2022/11/01 07:48:15;;;;;;;3.40;0.30;;;15.30;99.90;;;;;;5099970;28;20028;-61
2022/11/01 07:50:42;;;;;;;3.90;0.68;;;15.20;99.90;;;;;;5102725;28;20586;-61
2022/11/01 07:53:16;;;;;;;1.05;0.20;;;15.20;99.90;;;;;;5102967;28;20035;-61
2022/11/01 07:55:43;;;;;;;5.03;0.60;;;15.20;99.90;;;;;;5090113;28;20055;-61
2022/11/01 07:58:09;;;;;;;4.13;0.38;;;15.20;99.90;;;;;;5103618;28;20074;-61
2022/11/01 08:00:36;;;;;;;7.68;0.40;;;15.30;99.90;;;;;;5090429;28;20048;-62
2022/11/01 08:03:07;;;;;;;4.00;0.40;;;15.30;99.90;;;;;;5091658;28;20044;-60
2022/11/01 08:05:34;;;;;;;5.63;1.00;;;15.30;99.90;;;;;;5110590;28;20111;-61
2022/11/01 08:08:00;;;;;;;4.80;0.80;;;15.50;99.90;;;;;;5107082;28;20032;-60
2022/11/01 08:10:27;;;;;;;13.73;1.20;;;15.50;99.90;;;;;;5095212;28;20167;-61
2022/11/01 08:13:02;;;;;;;8.05;0.85;;;15.60;99.90;;;;;;5089459;28;20043;-61
2022/11/01 08:15:28;;;;;;;6.65;0.80;;;15.70;99.90;;;;;;5099120;28;20051;-60
2022/11/01 08:17:56;;;;;;;8.50;0.38;;;15.80;99.60;;;;;;5095748;28;20122;-61
2022/11/01 08:20:21;;;;;;;6.40;0.77;;;15.90;99.50;;;;;;5091791;28;20032;-59
2022/11/01 08:22:47;;;;;;;6.90;0.65;;;15.90;99.70;;;;;;5096770;28;20125;-61
2022/11/01 08:25:12;;;;;;;11.68;1.15;;;15.90;98.50;;;;;;5109934;28;20036;-60
2022/11/01 08:27:38;;;;;;;9.98;0.88;;;16.00;98.60;;;;;;5099096;28;20035;-61
2022/11/01 08:30:04;;;;;;;11.07;1.23;;;16.00;98.60;;;;;;5110547;28;20606;-57
2022/11/01 08:32:29;;;;;;;6.18;1.25;;;16.10;98.60;;;;;;5106754;28;20040;-58
2022/11/01 08:34:55;;;;;;;12.38;1.25;;;16.20;98.60;;;;;;5100063;28;20417;-55
2022/11/01 08:37:21;;;;;;;6.95;0.70;;;16.20;98.30;;;;;;5097574;28;20142;-55
2022/11/01 08:39:46;;;;;;;11.05;1.15;;;16.40;98.60;;;;;;5109487;28;20048;-58
2022/11/01 08:42:12;;;;;;;7.38;0.73;;;16.40;97.80;;;;;;5092518;28;20051;-56
2022/11/01 08:44:37;;;;;;;17.90;1.42;;;16.50;98.10;;;;;;5095251;28;20063;-55
2022/11/01 08:47:03;;;;;;;4.50;1.42;;;16.50;97.20;;;;;;5093763;28;20063;-56
2022/11/01 08:49:28;;;;;;;8.23;0.90;;;16.40;96.80;;;;;;5109454;28;20400;-56
2022/11/01 08:51:54;;;;;;;12.48;1.65;;;16.40;97.20;;;;;;5114115;28;20178;-57
2022/11/01 08:54:20;;;;;;;10.52;1.10;;;16.50;97.50;;;;;;5111855;28;20053;-54
2022/11/01 08:56:46;;;;;;;9.10;1.15;;;16.50;97.10;;;;;;5113916;28;20106;-58
2022/11/01 08:59:11;;;;;;;7.60;0.90;;;16.50;96.90;;;;;;5102244;28;20043;-57
2022/11/01 09:01:37;;;;;;;7.13;1.20;;;16.60;96.70;;;;;;5106591;28;20131;-56
2022/11/01 09:04:04;;;;;;;16.65;1.38;;;16.60;96.10;;;;;;5096870;28;20035;-57
2022/11/01 09:06:29;;;;;;;10.55;1.13;;;16.60;95.80;;;;;;5102400;28;20040;-56
2022/11/01 09:08:55;;;;;;;15.57;1.75;;;16.50;95.90;;;;;;5100453;28;20048;-56
2022/11/01 09:11:22;;;;;;;14.25;2.13;;;16.60;95.60;;;;;;5093329;28;20036;-54
2022/11/01 09:13:49;;;;;;;9.90;1.33;;;16.70;96.40;;;;;;5096260;28;20107;-56
2022/11/01 09:16:14;;;;;;;;;;;16.60;96.20;;;;;;5097148;28;20043;-54
2022/11/01 09:18:40;;;;;;;12.60;1.70;;;16.50;95.40;;;;;;5097654;28;19916;-56
2022/11/01 09:21:06;;;;;;;10.40;1.17;;;16.30;95.70;;;;;;5113352;28;20481;-56
2022/11/01 09:23:36;;;;;;;;;;;16.20;95.70;;;;;;5108009;28;20450;-57
2022/11/01 09:26:04;;;;;;;15.15;2.25;;;16.20;95.90;;;;;;5110529;28;19915;-55
2022/11/01 09:28:31;;;;;;;6.15;0.98;;;16.30;96.30;;;;;;5105235;28;20069;-58
2022/11/01 09:30:59;;;;;;;9.95;1.10;;;16.40;95.50;;;;;;5104250;28;20032;-57
2022/11/01 09:33:25;;;;;;;8.98;1.17;;;16.50;96.30;;;;;;5102272;28;20054;-56
2022/11/01 09:35:51;;;;;;;11.35;1.65;;;16.60;96.30;;;;;;5101836;28;20040;-58
2022/11/01 09:38:17;;;;;;;15.45;2.28;;;16.60;95.80;;;;;;5095713;28;20225;-58
2022/11/01 09:40:45;;;;;;;9.77;1.30;;;16.60;96.20;;;;;;5093104;28;20519;-58
2022/11/01 09:43:20;;;;;;;10.45;1.05;;;16.70;96.40;;;;;;5103750;28;20368;-58
2022/11/01 09:45:50;;;;;;;9.82;1.50;;;16.70;96.00;;;;;;5072384;28;20520;-57
2022/11/01 09:48:16;;;;;;;20.00;1.70;;;16.80;95.90;;;;;;5080171;28;20473;-57
2022/11/01 09:50:42;;;;;;;;;;;16.80;95.80;;;;;;5092627;28;20044;-58
2022/11/01 09:53:17;;;;;;;12.23;1.35;;;16.70;96.00;;;;;;5090537;28;19923;-57
2022/11/01 09:55:55;;;;;;;12.02;1.40;;;16.70;95.80;;;;;;5098089;28;20040;-57
2022/11/01 09:59:00;;;;;;;12.15;1.88;;;16.70;96.10;;;;;;5097931;28;20053;-58
2022/11/01 10:01:49;;;;;;;15.15;1.98;;;16.70;96.00;;;;;;5076499;28;20374;-57
2022/11/01 10:04:43;;;;;;;11.52;1.50;;;16.70;96.40;;;;;;5078747;28;20049;-58
2022/11/01 10:07:36;;;;;;;9.73;1.75;;;16.80;96.50;;;;;;5076862;28;20079;-58
2022/11/01 10:10:22;;;;;;;9.35;1.33;;;16.80;96.20;;;;;;5069393;28;20032;-56
2022/11/01 10:12:54;;;;;;;9.27;1.65;;;16.70;96.20;;;;;;5061954;28;20044;-56
2022/11/01 10:15:43;;;;;;;8.80;1.92;;;16.60;95.90;;;;;;5071323;28;20634;-58
2022/11/01 10:18:26;;;;;;;12.85;1.77;;;16.60;96.30;;;;;;5067261;28;20076;-57
2022/11/01 10:20:52;;;;;;;7.85;0.75;;;16.60;96.90;;;;;;5071221;28;20163;-58
2022/11/01 10:23:31;;;;;;;13.23;1.55;;;16.70;96.60;;;;;;5067362;28;20040;-58
2022/11/01 10:25:56;;;;;;;7.75;1.15;;;16.60;96.30;;;;;;5077270;28;20032;-58
2022/11/01 10:28:49;;;;;;;10.48;1.67;;;16.60;97.00;;;;;;5075141;28;20044;-57
2022/11/01 10:31:21;;;;;;;14.52;1.33;;;16.60;96.70;;;;;;5082120;28;20040;-58
2022/11/01 10:34:13;;;;;;;13.82;2.33;;;16.60;96.60;;;;;;5089757;28;20089;-57
2022/11/01 10:36:43;;;;;;;13.10;2.38;;;16.60;96.90;;;;;;5086373;28;20535;-56
2022/11/01 10:39:28;;;;;;;8.45;2.10;;;16.60;96.70;;;;;;5082662;28;20075;-55
2022/11/01 10:41:54;;;;;;;14.50;1.58;;;16.50;96.10;;;;;;5079715;28;20036;-54
2022/11/01 10:44:25;;;;;;;13.95;1.65;;;16.40;96.40;;;;;;5074929;28;20043;-55
2022/11/01 10:46:52;;;;;;;20.08;2.00;;;16.40;96.60;;;;;;5068851;28;20036;-57
2022/11/01 10:49:24;;;;;;;10.85;1.58;;;16.40;96.70;;;;;;5076542;28;20539;-58
2022/11/01 10:51:54;;;;;;;13.20;1.63;;;16.60;96.90;;;;;;5082789;28;20047;-56
2022/11/01 10:54:24;;;;;;;15.05;1.67;;;16.60;96.30;;;;;;5078544;28;20492;-57
2022/11/01 10:56:52;;;;;;;13.02;1.95;;;16.70;97.20;;;;;;5074210;28;20101;-58
2022/11/01 10:59:37;;;;;;;14.43;2.92;;;16.90;97.30;;;;;;5071791;28;20543;-58
2022/11/01 11:02:21;;;;;;;13.02;2.20;;;17.00;97.20;;;;;;5080463;28;20047;-58
2022/11/01 11:04:48;;;;;;;15.60;2.20;;;17.10;96.30;;;;;;5078503;28;20118;-58
2022/11/01 11:07:16;;;;;;;11.85;1.92;;;17.20;96.20;;;;;;5067860;28;20340;-56
2022/11/01 11:09:42;;;;;;;17.70;2.50;;;17.40;96.70;;;;;;5067368;28;20043;-57
2022/11/01 11:12:15;;;;;;;;;;;17.30;96.20;;;;;;5068525;28;20048;-57
2022/11/01 11:14:42;;;;;;;16.50;1.88;;;17.30;96.20;;;;;;5073733;28;19927;-55
2022/11/01 11:17:18;;;;;;;12.43;2.63;;;17.30;96.20;;;;;;5075421;28;20040;-56
2022/11/01 11:19:45;;;;;;;12.05;1.73;;;17.30;96.50;;;;;;5076905;28;20606;-56
2022/11/01 11:22:12;;;;;;;14.18;1.77;;;17.40;97.20;;;;;;5074086;28;20040;-58
2022/11/01 11:24:42;;;;;;;17.50;2.13;;;17.40;96.50;;;;;;5076568;28;20103;-57
2022/11/01 11:27:21;;;;;;;14.50;1.95;;;17.20;96.50;;;;;;5074974;28;20050;-57
2022/11/01 11:29:57;;;;;;;12.93;2.10;;;17.00;96.40;;;;;;5073033;28;20389;-56
2022/11/01 11:32:29;;;;;;;7.28;1.42;;;16.90;96.30;;;;;;5075693;28;20044;-56
2022/11/01 11:34:54;;;;;;;20.98;2.80;;;16.90;96.50;;;;;;5076652;28;20036;-56
2022/11/01 11:37:23;;;;;;;18.95;2.60;;;16.90;96.40;;;;;;5075338;28;20043;-56
2022/11/01 11:40:19;;;;;;;13.25;2.38;;;17.00;96.60;;;;;;5069530;28;20033;-56
2022/11/01 11:42:50;;;;;;;11.07;1.15;;;17.20;96.30;;;;;;5074102;28;20044;-57
2022/11/01 11:45:26;;;;;;;15.60;1.70;;;17.30;96.20;;;;;;5073722;28;20049;-55
2022/11/01 11:47:52;;;;;;;11.38;1.83;;;17.40;96.40;;;;;;5065450;28;20257;-56
2022/11/01 11:50:18;;;;;;;11.25;1.80;;;17.20;95.70;;;;;;5073135;28;20036;-58
2022/11/01 11:52:44;;;;;;;13.52;1.60;;;17.20;95.70;;;;;;5065820;28;20079;-57
2022/11/01 11:55:34;;;;;;;17.55;2.70;;;17.10;95.70;;;;;;5065441;28;20724;-57
2022/11/01 11:58:00;;;;;;;12.25;1.80;;;17.10;95.70;;;;;;5065188;28;20102;-56
2022/11/01 12:00:28;;;;;;;;;;;17.00;95.40;;;;;;5067810;28;20036;-55
2022/11/01 12:02:54;;;;;;;;;;;16.90;95.50;;;;;;5064746;28;20068;-57
2022/11/01 12:05:22;;;;;;;6.35;1.20;;;17.00;96.30;;;;;;5068981;28;19999;-57
2022/11/01 12:07:53;;;;;;;12.48;1.33;;;17.00;96.00;;;;;;5077344;28;20175;-58
2022/11/01 12:10:33;;;;;;;15.25;1.98;;;17.10;95.90;;;;;;5068648;28;20114;-58
2022/11/01 12:13:23;;;;;;;14.43;1.25;;;17.20;95.90;;;;;;5076162;28;20036;-57
2022/11/01 12:16:15;;;;;;;15.43;2.05;;;17.20;95.90;;;;;;5078081;28;20154;-60
2022/11/01 12:18:49;;;;;;;9.48;0.88;;;17.40;95.90;;;;;;5063646;28;20524;-61
2022/11/01 12:21:22;;;;;;;9.10;1.20;;;17.50;95.80;;;;;;5081731;28;20036;-57
2022/11/01 12:23:51;;;;;;;14.38;1.98;;;17.60;96.20;;;;;;5062862;28;20052;-58
2022/11/01 12:26:19;;;;;;;33.80;4.40;;;17.70;95.80;;;;;;5071400;28;20040;-58
2022/11/01 12:28:52;;;;;;;66.22;7.68;;;17.90;96.20;;;;;;5065074;28;20554;-59
2022/11/01 12:31:20;;;;;;;7.57;1.10;;;18.10;96.30;;;;;;5070750;28;20036;-58
2022/11/01 12:34:23;;;;;;;14.20;1.50;;;18.10;95.20;;;;;;5064676;28;20041;-59
2022/11/01 12:37:00;;;;;;;12.63;1.77;;;18.00;95.00;;;;;;5069664;28;20052;-59
2022/11/01 12:39:35;;;;;;;9.30;1.30;;;17.90;95.10;;;;;;5071179;28;20044;-57
2022/11/01 12:42:03;;;;;;;9.57;0.85;;;18.00;95.00;;;;;;5069068;28;20036;-58
2022/11/01 12:44:39;;;;;;;8.70;0.88;;;18.20;94.80;;;;;;5070969;28;20036;-60
2022/11/01 12:47:37;;;;;;;9.05;1.27;;;18.30;95.00;;;;;;5067790;28;20420;-59
2022/11/01 12:50:43;;;;;;;8.93;1.08;;;18.20;94.60;;;;;;5065907;28;20078;-57
2022/11/01 12:53:18;;;;;;;13.68;1.80;;;18.20;94.50;;;;;;5068116;28;20063;-59
2022/11/01 12:55:44;;;;;;;16.15;1.30;;;18.20;94.90;;;;;;5065217;28;20075;-59
2022/11/01 12:58:20;;;;;;;11.40;1.27;;;18.10;94.70;;;;;;5066342;28;20150;-59
2022/11/01 13:01:11;;;;;;;6.90;1.42;;;18.00;94.90;;;;;;5069315;28;20495;-59
2022/11/01 13:04:08;;;;;;;8.82;1.38;;;18.00;94.60;;;;;;5069471;28;20044;-58
2022/11/01 13:06:37;;;;;;;9.45;1.48;;;17.80;94.60;;;;;;5068880;28;20081;-59
2022/11/01 13:09:17;;;;;;;9.70;1.63;;;17.60;94.10;;;;;;5071878;28;20044;-62